Time;durP1;ratioP1;P1;durP2;ratioP2;P2;SDS_P1;SDS_P2;PMS_P1;PMS_P2;Temp;Humidity;BMP_temperature;BMP_pressure;BME280_temperature;BME280_humidity;BME280_pressure;Samples;Min_cycle;Max_cycle;Signal;HPM_P1;HPM_P2
2022/08/30 00:01:04;;;;;;;2.10;2.00;;;18.40;99.90;;;;;;472686;249;28886;-68
2022/08/30 00:03:05;;;;;;;2.27;2.07;;;18.30;99.90;;;;;;472670;250;29440;-68
2022/08/30 00:05:05;;;;;;;2.27;2.07;;;18.30;99.90;;;;;;472665;249;29533;-69
2022/08/30 00:07:07;;;;;;;2.30;2.07;;;18.30;99.90;;;;;;472658;249;29440;-68
2022/08/30 00:09:08;;;;;;;1.73;1.63;;;18.20;99.90;;;;;;472664;249;28904;-68
2022/08/30 00:11:09;;;;;;;1.97;1.87;;;18.20;99.90;;;;;;472716;249;28913;-69
2022/08/30 00:13:14;;;;;;;2.13;2.03;;;18.20;99.90;;;;;;472712;249;28921;-68
2022/08/30 00:15:12;;;;;;;2.20;2.10;;;18.20;99.90;;;;;;472535;251;29009;-69
2022/08/30 00:17:13;;;;;;;2.43;2.23;;;18.10;99.90;;;;;;472634;249;28885;-68
2022/08/30 00:19:14;;;;;;;2.10;2.00;;;18.10;99.90;;;;;;472704;249;28906;-68
2022/08/30 00:21:15;;;;;;;1.90;1.80;;;18.10;99.90;;;;;;472677;250;28974;-71
2022/08/30 00:23:17;;;;;;;2.07;1.97;;;18.00;99.90;;;;;;472690;249;28885;-68
2022/08/30 00:25:18;;;;;;;1.90;1.80;;;18.00;99.90;;;;;;472693;249;28922;-68
2022/08/30 00:27:19;;;;;;;2.80;2.10;;;18.00;99.90;;;;;;472640;249;29381;-69
2022/08/30 00:29:21;;;;;;;2.00;1.90;;;17.90;99.90;;;;;;472701;250;29501;-68
2022/08/30 00:31:22;;;;;;;2.80;2.40;;;18.00;99.90;;;;;;472677;249;29490;-72
2022/08/30 00:33:23;;;;;;;2.23;2.03;;;18.00;99.90;;;;;;472719;250;28878;-68
2022/08/30 00:35:24;;;;;;;2.37;2.23;;;18.00;99.90;;;;;;472692;249;28984;-69
2022/08/30 00:37:26;;;;;;;2.27;2.10;;;18.00;99.90;;;;;;472640;249;28958;-68
2022/08/30 00:39:27;;;;;;;2.40;2.00;;;18.10;99.90;;;;;;472705;249;28890;-68
2022/08/30 00:41:28;;;;;;;2.30;2.10;;;18.10;99.90;;;;;;472720;250;29000;-69
2022/08/30 00:43:29;;;;;;;2.40;2.20;;;18.10;99.90;;;;;;472690;250;28878;-68
2022/08/30 00:45:30;;;;;;;2.10;2.00;;;18.00;99.90;;;;;;472705;249;28941;-69
2022/08/30 00:47:32;;;;;;;1.90;1.80;;;18.00;99.90;;;;;;472638;249;28887;-68
2022/08/30 00:49:33;;;;;;;2.10;1.93;;;17.90;99.90;;;;;;472671;250;28892;-69
2022/08/30 00:51:34;;;;;;;2.37;2.17;;;17.90;99.90;;;;;;472692;249;29394;-72
2022/08/30 00:53:35;;;;;;;2.30;2.10;;;17.80;99.90;;;;;;472709;249;29395;-68
2022/08/30 00:55:37;;;;;;;2.20;2.10;;;17.80;99.90;;;;;;472690;249;29420;-69
2022/08/30 00:57:38;;;;;;;2.37;2.17;;;17.90;99.90;;;;;;472622;249;28959;-68
2022/08/30 00:59:39;;;;;;;2.13;1.70;;;17.90;99.90;;;;;;472607;249;28882;-68
2022/08/30 01:01:41;;;;;;;2.70;2.50;;;18.00;99.90;;;;;;472638;250;28919;-70
2022/08/30 01:03:42;;;;;;;3.90;2.50;;;18.10;99.90;;;;;;472606;249;28958;-68
2022/08/30 01:05:43;;;;;;;2.30;2.10;;;18.10;99.90;;;;;;472634;249;28900;-69
2022/08/30 01:07:44;;;;;;;2.20;2.00;;;18.00;99.90;;;;;;472537;249;28879;-69
2022/08/30 01:09:45;;;;;;;2.83;2.50;;;17.90;99.90;;;;;;472658;249;28940;-69
2022/08/30 01:11:47;;;;;;;2.67;2.47;;;17.80;99.90;;;;;;472677;249;28980;-70
2022/08/30 01:13:49;;;;;;;2.27;2.17;;;17.60;99.90;;;;;;472654;249;28876;-68
2022/08/30 01:15:49;;;;;;;2.27;2.10;;;17.50;99.90;;;;;;472668;250;29395;-68
2022/08/30 01:17:50;;;;;;;2.10;2.00;;;17.30;99.90;;;;;;472647;250;29490;-68
2022/08/30 01:19:52;;;;;;;2.50;2.30;;;17.10;99.90;;;;;;472698;249;29409;-68
2022/08/30 01:21:53;;;;;;;2.13;2.00;;;16.90;99.90;;;;;;472691;249;29431;-70
2022/08/30 01:23:54;;;;;;;3.40;2.20;;;16.80;99.90;;;;;;472693;250;28951;-69
2022/08/30 01:25:55;;;;;;;2.83;2.27;;;16.70;99.90;;;;;;472690;249;29036;-69
2022/08/30 01:27:57;;;;;;;3.40;2.30;;;16.60;99.90;;;;;;472648;249;28914;-68
2022/08/30 01:29:58;;;;;;;2.00;1.90;;;16.60;99.90;;;;;;472703;249;28875;-69
2022/08/30 01:31:59;;;;;;;2.10;2.00;;;16.60;99.90;;;;;;472688;250;28929;-71
2022/08/30 01:34:00;;;;;;;1.97;1.87;;;16.60;99.90;;;;;;472687;249;29039;-68
2022/08/30 01:36:02;;;;;;;2.10;2.00;;;16.70;99.90;;;;;;472648;250;28914;-69
2022/08/30 01:38:04;;;;;;;1.70;1.60;;;16.70;99.90;;;;;;472587;251;28969;-68
2022/08/30 01:40:05;;;;;;;2.40;2.20;;;16.70;99.90;;;;;;472666;250;29426;-68
2022/08/30 01:42:05;;;;;;;3.07;2.37;;;16.60;99.90;;;;;;472691;249;29353;-70
2022/08/30 01:44:07;;;;;;;2.20;2.10;;;16.60;99.90;;;;;;472687;249;29457;-68
2022/08/30 01:46:09;;;;;;;2.33;2.20;;;16.50;99.90;;;;;;472629;249;29491;-69
2022/08/30 01:48:11;;;;;;;2.67;2.50;;;16.40;99.90;;;;;;472628;251;29002;-67
2022/08/30 01:50:10;;;;;;;2.10;2.00;;;16.30;99.90;;;;;;472579;251;28924;-68
2022/08/30 01:52:12;;;;;;;2.50;2.30;;;16.20;99.90;;;;;;472693;249;28988;-71
2022/08/30 01:54:13;;;;;;;2.37;2.27;;;16.20;99.90;;;;;;472703;250;28888;-67
2022/08/30 01:56:14;;;;;;;2.50;2.30;;;16.20;99.90;;;;;;472527;249;28909;-69
2022/08/30 01:58:16;;;;;;;2.20;1.80;;;16.20;99.90;;;;;;472704;249;28913;-68
2022/08/30 02:00:17;;;;;;;3.00;2.00;;;16.20;99.90;;;;;;472599;249;28903;-68
2022/08/30 02:02:18;;;;;;;2.20;2.10;;;16.30;99.90;;;;;;472721;249;28914;-70
2022/08/30 02:04:19;;;;;;;2.33;2.23;;;16.20;99.90;;;;;;472685;250;28957;-68
2022/08/30 02:06:21;;;;;;;2.43;2.27;;;16.20;99.90;;;;;;472596;249;29400;-69
2022/08/30 02:08:22;;;;;;;2.40;2.20;;;16.00;99.90;;;;;;472681;249;29433;-68
2022/08/30 02:10:23;;;;;;;2.10;2.00;;;15.90;99.90;;;;;;472585;249;29334;-69
2022/08/30 02:12:24;;;;;;;1.80;1.70;;;15.90;99.90;;;;;;472687;249;28904;-70
2022/08/30 02:14:26;;;;;;;2.10;2.00;;;15.90;99.90;;;;;;472685;249;28987;-67
2022/08/30 02:16:27;;;;;;;2.77;2.13;;;15.80;99.90;;;;;;472598;249;28910;-69
2022/08/30 02:18:28;;;;;;;2.30;2.10;;;15.80;99.90;;;;;;472675;249;28858;-68
2022/08/30 02:20:29;;;;;;;2.20;2.10;;;15.70;99.90;;;;;;472653;250;28879;-69
2022/08/30 02:22:31;;;;;;;2.33;2.13;;;15.80;99.90;;;;;;472674;249;28948;-72
2022/08/30 02:24:32;;;;;;;1.97;1.87;;;15.80;99.90;;;;;;472655;249;29050;-70
2022/08/30 02:26:35;;;;;;;1.97;1.87;;;15.80;99.90;;;;;;472480;249;28902;-68
2022/08/30 02:28:34;;;;;;;1.93;1.77;;;15.80;99.90;;;;;;472455;251;28873;-68
2022/08/30 02:30:36;;;;;;;2.03;1.93;;;15.80;99.90;;;;;;472419;249;29461;-68
2022/08/30 02:32:37;;;;;;;2.87;2.50;;;15.70;99.90;;;;;;472590;249;29397;-67
2022/08/30 02:34:38;;;;;;;2.20;2.00;;;15.70;99.90;;;;;;472676;249;29264;-68
2022/08/30 02:36:40;;;;;;;2.40;2.20;;;15.60;99.90;;;;;;472338;249;29376;-70
2022/08/30 02:38:41;;;;;;;2.43;2.00;;;15.60;99.90;;;;;;472665;249;28917;-68
2022/08/30 02:40:43;;;;;;;2.77;2.20;;;15.70;99.90;;;;;;472686;249;28894;-68
2022/08/30 02:42:43;;;;;;;2.10;2.00;;;15.60;99.90;;;;;;472629;249;28900;-71
2022/08/30 02:44:44;;;;;;;2.00;1.90;;;15.50;99.90;;;;;;472670;249;28869;-68
2022/08/30 02:46:46;;;;;;;2.43;2.10;;;15.50;99.90;;;;;;472567;251;28918;-68
2022/08/30 02:48:47;;;;;;;2.23;2.13;;;15.50;99.90;;;;;;472647;249;28874;-68
2022/08/30 02:50:48;;;;;;;1.90;1.80;;;15.50;99.90;;;;;;472685;249;28980;-68
2022/08/30 02:52:49;;;;;;;2.37;2.27;;;15.60;99.90;;;;;;472684;249;28978;-71
2022/08/30 02:54:51;;;;;;;2.17;2.07;;;15.50;99.90;;;;;;472681;249;28911;-68
2022/08/30 02:56:52;;;;;;;2.60;2.40;;;15.50;99.90;;;;;;472497;249;28986;-69
2022/08/30 02:58:53;;;;;;;2.47;2.27;;;15.40;99.90;;;;;;472711;249;30291;-67
2022/08/30 03:00:55;;;;;;;3.13;1.97;;;15.40;99.90;;;;;;472707;249;29405;-68
2022/08/30 03:02:56;;;;;;;2.10;2.00;;;15.30;99.90;;;;;;472692;249;29419;-69
2022/08/30 03:04:57;;;;;;;2.10;1.90;;;15.20;99.90;;;;;;472631;251;28873;-68
2022/08/30 03:06:58;;;;;;;1.93;1.83;;;15.10;99.90;;;;;;472556;249;28909;-68
2022/08/30 03:09:00;;;;;;;2.20;2.10;;;15.20;99.90;;;;;;472668;249;28891;-68
2022/08/30 03:11:01;;;;;;;2.10;2.00;;;15.20;99.90;;;;;;472668;249;28900;-68
2022/08/30 03:13:04;;;;;;;2.77;2.17;;;15.20;99.90;;;;;;472699;250;29008;-71
2022/08/30 03:15:03;;;;;;;2.30;2.10;;;15.20;99.90;;;;;;472638;249;28896;-68
2022/08/30 03:17:05;;;;;;;1.90;1.80;;;15.20;99.90;;;;;;472511;251;28924;-69
2022/08/30 03:19:06;;;;;;;1.97;1.87;;;15.20;99.90;;;;;;472657;249;29254;-68
2022/08/30 03:21:07;;;;;;;1.93;1.83;;;15.10;99.90;;;;;;472711;249;28870;-68
2022/08/30 03:23:08;;;;;;;2.60;1.90;;;15.00;99.90;;;;;;472698;249;29415;-69
2022/08/30 03:25:10;;;;;;;2.40;2.23;;;14.90;99.90;;;;;;472693;249;29323;-68
2022/08/30 03:27:11;;;;;;;1.93;1.83;;;14.90;99.90;;;;;;472542;250;29413;-68
2022/08/30 03:29:12;;;;;;;2.60;2.20;;;14.90;99.90;;;;;;472692;249;31289;-68
2022/08/30 03:31:13;;;;;;;2.27;2.07;;;14.80;99.90;;;;;;472716;249;28864;-68
2022/08/30 03:33:15;;;;;;;2.00;1.80;;;14.90;99.90;;;;;;472697;250;29014;-71
2022/08/30 03:35:16;;;;;;;2.20;2.10;;;14.80;99.90;;;;;;472664;251;28884;-68
2022/08/30 03:37:18;;;;;;;2.20;2.00;;;14.80;99.90;;;;;;472505;251;28952;-68
2022/08/30 03:39:18;;;;;;;4.50;1.97;;;14.90;99.90;;;;;;472624;249;28905;-68
2022/08/30 03:41:20;;;;;;;2.23;2.03;;;14.80;99.90;;;;;;472677;251;28976;-68
2022/08/30 03:43:21;;;;;;;2.40;2.20;;;14.90;99.90;;;;;;472677;249;28976;-68
2022/08/30 03:45:22;;;;;;;1.90;1.80;;;14.90;99.90;;;;;;472665;249;28883;-67
2022/08/30 03:47:23;;;;;;;2.23;2.03;;;14.80;99.90;;;;;;472620;251;28910;-69
2022/08/30 03:49:25;;;;;;;2.90;2.17;;;14.70;99.90;;;;;;472672;249;28920;-68
2022/08/30 03:51:26;;;;;;;2.00;1.90;;;14.50;99.90;;;;;;472682;249;28927;-68
2022/08/30 03:53:27;;;;;;;3.20;2.40;;;14.50;99.90;;;;;;472626;249;28944;-69
2022/08/30 03:55:29;;;;;;;2.83;2.20;;;14.40;99.90;;;;;;472656;249;28902;-68
2022/08/30 03:57:30;;;;;;;2.37;2.27;;;14.40;99.90;;;;;;472491;249;28911;-68
2022/08/30 03:59:31;;;;;;;6.23;2.40;;;14.30;99.90;;;;;;472645;251;29286;-67
2022/08/30 04:01:32;;;;;;;2.23;2.13;;;14.30;99.90;;;;;;472666;249;28880;-68
2022/08/30 04:03:34;;;;;;;2.30;2.20;;;14.30;99.90;;;;;;472657;249;29433;-70
2022/08/30 04:05:35;;;;;;;2.47;2.27;;;14.40;99.90;;;;;;472654;249;29352;-68
2022/08/30 04:07:36;;;;;;;2.70;2.50;;;14.40;99.90;;;;;;472505;249;29511;-68
2022/08/30 04:09:37;;;;;;;2.67;2.47;;;14.40;99.90;;;;;;472670;249;29159;-67
2022/08/30 04:11:39;;;;;;;2.00;1.90;;;14.40;99.90;;;;;;472681;249;28994;-67
2022/08/30 04:13:40;;;;;;;2.37;2.27;;;14.40;99.90;;;;;;472682;249;28903;-71
2022/08/30 04:15:41;;;;;;;6.30;2.70;;;14.40;99.90;;;;;;472669;250;28908;-68
2022/08/30 04:17:42;;;;;;;2.80;2.60;;;14.50;99.90;;;;;;472609;249;28939;-71
2022/08/30 04:19:43;;;;;;;2.67;2.47;;;14.50;99.90;;;;;;472632;249;28513;-67
2022/08/30 04:21:45;;;;;;;2.20;2.07;;;14.40;99.90;;;;;;472695;249;28894;-67
2022/08/30 04:23:46;;;;;;;2.33;2.20;;;14.40;99.90;;;;;;472684;250;28608;-69
2022/08/30 04:25:47;;;;;;;2.37;2.17;;;14.40;99.90;;;;;;472665;250;28945;-68
2022/08/30 04:27:48;;;;;;;2.60;2.40;;;14.40;99.90;;;;;;472572;250;29386;-67
2022/08/30 04:29:50;;;;;;;2.50;2.30;;;14.40;99.90;;;;;;472734;249;30050;-68
2022/08/30 04:31:51;;;;;;;2.07;1.97;;;14.40;99.90;;;;;;472704;249;30200;-67
2022/08/30 04:33:52;;;;;;;2.40;2.20;;;14.40;99.90;;;;;;472709;249;29486;-71
2022/08/30 04:35:53;;;;;;;2.00;1.80;;;14.30;99.90;;;;;;472686;249;28869;-68
2022/08/30 04:37:55;;;;;;;3.13;2.33;;;14.30;99.90;;;;;;472579;249;28922;-68
2022/08/30 04:39:56;;;;;;;2.50;2.30;;;14.30;99.90;;;;;;472710;249;28962;-68
2022/08/30 04:41:57;;;;;;;2.80;2.57;;;14.20;99.90;;;;;;472699;249;28897;-68
2022/08/30 04:44:01;;;;;;;3.57;2.30;;;14.10;99.90;;;;;;472715;249;28922;-73
2022/08/30 04:46:00;;;;;;;3.40;2.30;;;14.10;99.90;;;;;;472550;251;28656;-69
2022/08/30 04:48:01;;;;;;;2.90;2.70;;;14.10;99.90;;;;;;472642;249;28938;-68
2022/08/30 04:50:02;;;;;;;2.50;2.30;;;14.10;99.90;;;;;;472681;249;28863;-68
2022/08/30 04:52:05;;;;;;;2.60;2.40;;;14.10;99.90;;;;;;472691;249;29433;-68
2022/08/30 04:54:05;;;;;;;2.17;2.07;;;14.10;99.90;;;;;;472638;251;29428;-70
2022/08/30 04:56:06;;;;;;;4.13;2.40;;;14.10;99.90;;;;;;472642;250;29470;-77
2022/08/30 04:58:07;;;;;;;3.00;2.80;;;14.10;99.90;;;;;;472622;249;29442;-68
2022/08/30 05:00:09;;;;;;;2.83;2.60;;;14.10;99.90;;;;;;472683;249;28975;-67
2022/08/30 05:02:10;;;;;;;2.73;2.53;;;14.00;99.90;;;;;;472583;249;28897;-69
2022/08/30 05:04:11;;;;;;;2.57;2.37;;;13.90;99.90;;;;;;472658;249;28957;-72
2022/08/30 05:06:12;;;;;;;2.90;2.50;;;13.90;99.90;;;;;;472656;249;28870;-68
2022/08/30 05:08:13;;;;;;;2.50;2.30;;;14.00;99.90;;;;;;472628;249;28976;-69
2022/08/30 05:10:15;;;;;;;2.57;2.37;;;14.00;99.90;;;;;;472644;249;28550;-68
2022/08/30 05:12:16;;;;;;;2.60;2.40;;;14.10;99.90;;;;;;472583;249;28990;-68
2022/08/30 05:14:17;;;;;;;2.83;2.50;;;14.20;99.90;;;;;;472699;249;28923;-70
2022/08/30 05:16:18;;;;;;;2.70;2.50;;;14.20;99.90;;;;;;472602;249;28951;-68
2022/08/30 05:18:20;;;;;;;2.23;2.13;;;14.30;99.90;;;;;;472675;249;29559;-69
2022/08/30 05:20:21;;;;;;;3.47;2.40;;;14.30;99.90;;;;;;472702;249;29401;-67
2022/08/30 05:22:22;;;;;;;2.30;2.20;;;14.30;99.90;;;;;;472689;250;29329;-68
2022/08/30 05:24:23;;;;;;;2.53;2.33;;;14.40;99.90;;;;;;472680;249;28902;-71
2022/08/30 05:26:25;;;;;;;2.87;2.67;;;14.30;99.90;;;;;;472619;249;28891;-68
2022/08/30 05:28:26;;;;;;;2.97;2.77;;;14.20;99.90;;;;;;472680;249;28997;-69
2022/08/30 05:30:27;;;;;;;2.63;2.43;;;14.20;99.90;;;;;;472683;251;28968;-68
2022/08/30 05:32:28;;;;;;;3.13;2.57;;;14.20;99.90;;;;;;472657;249;28882;-68
2022/08/30 05:34:30;;;;;;;2.60;2.40;;;14.30;99.90;;;;;;472672;249;28872;-71
2022/08/30 05:36:31;;;;;;;2.70;2.50;;;14.30;99.90;;;;;;472615;249;28906;-68
2022/08/30 05:38:32;;;;;;;2.57;2.37;;;14.30;99.90;;;;;;472652;249;28993;-69
2022/08/30 05:40:33;;;;;;;2.67;2.47;;;14.40;99.90;;;;;;472692;249;28876;-68
2022/08/30 05:42:35;;;;;;;2.30;2.20;;;14.40;99.90;;;;;;472663;249;29449;-68
2022/08/30 05:44:36;;;;;;;3.07;2.77;;;14.40;99.90;;;;;;472696;249;29495;-71
2022/08/30 05:46:38;;;;;;;2.70;2.50;;;14.40;99.90;;;;;;472621;249;29349;-68
2022/08/30 05:48:38;;;;;;;2.60;2.50;;;14.30;99.90;;;;;;472667;249;29485;-69
2022/08/30 05:50:40;;;;;;;3.00;2.70;;;14.20;99.90;;;;;;472665;249;28900;-68
2022/08/30 05:52:41;;;;;;;2.63;2.40;;;14.20;99.90;;;;;;472652;249;28905;-68
2022/08/30 05:54:42;;;;;;;2.93;2.70;;;14.30;99.90;;;;;;472678;249;28920;-71
2022/08/30 05:56:44;;;;;;;2.80;2.60;;;14.30;99.90;;;;;;472620;249;28900;-68
2022/08/30 05:58:45;;;;;;;2.80;2.50;;;14.40;99.90;;;;;;472703;249;28992;-69
2022/08/30 06:00:46;;;;;;;3.13;2.83;;;14.50;99.90;;;;;;472680;249;28884;-68
2022/08/30 06:02:47;;;;;;;3.17;2.97;;;14.60;99.90;;;;;;472690;251;28913;-68
2022/08/30 06:04:48;;;;;;;2.87;2.67;;;14.70;99.90;;;;;;472718;250;29024;-73
2022/08/30 06:06:50;;;;;;;2.40;2.30;;;14.80;99.90;;;;;;472615;249;29284;-68
2022/08/30 06:08:51;;;;;;;2.70;2.50;;;14.90;99.90;;;;;;472667;249;29481;-69
2022/08/30 06:10:52;;;;;;;3.00;2.70;;;15.00;99.90;;;;;;472672;249;29440;-68
2022/08/30 06:12:53;;;;;;;4.10;2.70;;;15.10;99.90;;;;;;472670;249;29394;-68
2022/08/30 06:14:55;;;;;;;2.80;2.60;;;15.10;99.90;;;;;;472695;249;28931;-69
2022/08/30 06:16:57;;;;;;;2.60;2.43;;;15.20;99.90;;;;;;472662;249;28876;-68
2022/08/30 06:18:57;;;;;;;3.13;2.83;;;15.30;99.90;;;;;;472676;249;28909;-68
2022/08/30 06:20:58;;;;;;;2.97;2.77;;;15.40;99.90;;;;;;472644;249;28959;-68
2022/08/30 06:23:00;;;;;;;3.00;2.80;;;15.50;99.90;;;;;;472692;249;28864;-68
2022/08/30 06:25:01;;;;;;;3.13;2.90;;;15.60;99.90;;;;;;472663;249;28929;-68
2022/08/30 06:27:02;;;;;;;2.47;2.27;;;15.70;99.90;;;;;;472646;249;28990;-68
2022/08/30 06:29:03;;;;;;;2.83;2.63;;;15.80;99.90;;;;;;472593;249;28949;-71
2022/08/30 06:31:05;;;;;;;2.90;2.60;;;15.90;99.90;;;;;;472647;249;28885;-69
2022/08/30 06:33:06;;;;;;;3.00;2.80;;;15.90;99.90;;;;;;472661;249;29372;-69
2022/08/30 06:35:07;;;;;;;2.60;2.50;;;16.00;99.90;;;;;;472679;250;29477;-69
2022/08/30 06:37:09;;;;;;;2.80;2.60;;;16.00;99.90;;;;;;472636;250;29347;-68
2022/08/30 06:39:10;;;;;;;4.63;2.27;;;16.10;99.90;;;;;;472695;249;28922;-70
2022/08/30 06:41:11;;;;;;;2.57;2.30;;;16.20;99.90;;;;;;472667;249;29015;-69
2022/08/30 06:43:12;;;;;;;2.60;2.47;;;16.30;99.90;;;;;;472704;249;28915;-68
2022/08/30 06:45:15;;;;;;;3.27;3.07;;;16.40;99.90;;;;;;472685;249;28958;-68
2022/08/30 06:47:15;;;;;;;2.97;2.77;;;16.50;99.90;;;;;;472588;249;28882;-69
2022/08/30 06:49:16;;;;;;;2.60;2.40;;;16.50;99.90;;;;;;472675;249;28914;-70
2022/08/30 06:51:17;;;;;;;4.30;2.70;;;16.60;99.90;;;;;;472683;249;28890;-68
2022/08/30 06:53:19;;;;;;;3.27;3.07;;;16.70;99.90;;;;;;472677;249;28904;-71
2022/08/30 06:55:20;;;;;;;2.90;2.70;;;16.90;99.90;;;;;;472697;249;28874;-68
2022/08/30 06:57:21;;;;;;;3.03;2.83;;;16.90;99.90;;;;;;472651;249;29375;-68
2022/08/30 06:59:22;;;;;;;3.00;2.80;;;17.10;99.90;;;;;;472627;249;29798;-71
2022/08/30 07:01:24;;;;;;;3.33;3.10;;;17.70;99.90;;;;;;472646;249;29448;-68
2022/08/30 07:03:28;;;;;;;2.90;2.70;;;17.90;99.90;;;;;;472694;249;29392;-68
2022/08/30 07:05:26;;;;;;;3.03;2.67;;;17.80;99.90;;;;;;472584;251;28780;-69
2022/08/30 07:07:27;;;;;;;2.50;2.40;;;17.80;99.90;;;;;;472587;249;29020;-68
2022/08/30 07:09:29;;;;;;;2.37;2.17;;;17.90;99.90;;;;;;472698;249;28910;-71
2022/08/30 07:11:30;;;;;;;3.20;2.90;;;18.50;99.90;;;;;;472713;249;28922;-68
2022/08/30 07:13:31;;;;;;;3.50;3.20;;;19.00;99.90;;;;;;472684;249;28899;-69
2022/08/30 07:15:32;;;;;;;3.17;2.87;;;19.00;99.90;;;;;;472657;250;28875;-69
2022/08/30 07:19:53;;;;;;;5.00;3.20;;;19.50;99.90;;;;;;472651;251;28922;-69
2022/08/30 07:21:55;;;;;;;2.87;2.70;;;19.50;99.90;;;;;;472678;250;29310;-70
2022/08/30 07:23:56;;;;;;;4.93;3.40;;;19.60;99.90;;;;;;472680;249;29355;-68
2022/08/30 07:25:57;;;;;;;3.70;2.70;;;19.90;99.90;;;;;;472686;251;29367;-70
2022/08/30 07:27:58;;;;;;;3.50;3.10;;;19.90;99.90;;;;;;472646;249;29411;-69
2022/08/30 07:30:01;;;;;;;3.67;2.70;;;19.80;99.90;;;;;;472648;249;28915;-69
2022/08/30 07:32:01;;;;;;;3.80;3.40;;;19.90;99.90;;;;;;472629;249;29003;-69
2022/08/30 07:34:02;;;;;;;3.57;3.17;;;20.20;99.90;;;;;;472681;249;28948;-69
2022/08/30 07:36:03;;;;;;;4.23;3.90;;;20.40;99.90;;;;;;472656;249;28914;-70
2022/08/30 07:38:05;;;;;;;3.60;3.20;;;20.60;99.90;;;;;;472674;249;28853;-69
2022/08/30 07:40:06;;;;;;;4.50;3.23;;;20.60;99.90;;;;;;472667;251;28998;-69
2022/08/30 07:42:07;;;;;;;4.37;3.33;;;20.70;99.90;;;;;;472637;249;28907;-69
2022/08/30 07:44:08;;;;;;;3.83;3.17;;;20.70;99.90;;;;;;472674;249;28941;-69
2022/08/30 07:46:10;;;;;;;3.40;3.10;;;20.80;99.90;;;;;;472628;250;28910;-71
2022/08/30 07:48:12;;;;;;;5.87;3.27;;;20.90;99.90;;;;;;472670;249;29317;-68
2022/08/30 07:50:12;;;;;;;3.70;3.20;;;21.10;99.90;;;;;;472648;249;29401;-69
2022/08/30 07:52:13;;;;;;;3.40;3.20;;;21.30;99.90;;;;;;472656;249;30140;-68
2022/08/30 07:54:15;;;;;;;3.27;3.03;;;21.40;99.90;;;;;;472685;249;28873;-69
2022/08/30 07:56:16;;;;;;;4.80;3.20;;;21.40;99.90;;;;;;472642;249;28825;-72
2022/08/30 07:58:17;;;;;;;3.80;3.40;;;21.40;99.90;;;;;;472719;249;28970;-69
2022/08/30 08:00:18;;;;;;;7.37;4.47;;;21.40;99.90;;;;;;472667;251;28930;-69
2022/08/30 08:02:20;;;;;;;6.87;3.80;;;21.50;99.90;;;;;;472678;249;28908;-69
2022/08/30 08:04:21;;;;;;;6.83;3.23;;;21.50;99.90;;;;;;472708;249;28938;-69
2022/08/30 08:06:22;;;;;;;3.60;3.30;;;21.40;99.90;;;;;;472585;249;28998;-71
2022/08/30 08:08:23;;;;;;;10.30;3.63;;;21.30;99.90;;;;;;472600;249;28870;-69
2022/08/30 08:10:25;;;;;;;4.47;3.70;;;21.40;99.90;;;;;;472586;249;28957;-71
2022/08/30 08:12:26;;;;;;;3.67;3.37;;;21.40;99.90;;;;;;472684;249;29307;-69
2022/08/30 08:14:27;;;;;;;6.10;3.83;;;21.50;99.90;;;;;;472680;250;29353;-69
2022/08/30 08:16:28;;;;;;;4.20;3.80;;;21.50;99.90;;;;;;472637;249;29416;-70
2022/08/30 08:18:30;;;;;;;3.70;3.40;;;21.50;99.90;;;;;;472630;249;29322;-69
2022/08/30 08:20:31;;;;;;;6.00;3.73;;;21.50;99.90;;;;;;472449;249;29375;-69
2022/08/30 08:22:32;;;;;;;3.57;3.33;;;21.70;99.90;;;;;;472711;249;28930;-70
2022/08/30 08:24:33;;;;;;;4.53;3.40;;;21.70;99.90;;;;;;472621;249;28966;-71
2022/08/30 08:26:35;;;;;;;4.90;3.60;;;21.70;99.90;;;;;;472633;251;28975;-70
2022/08/30 08:28:36;;;;;;;3.10;2.80;;;21.60;99.90;;;;;;472689;249;28944;-69
2022/08/30 08:30:37;;;;;;;4.07;3.20;;;21.80;99.90;;;;;;472682;249;28990;-69
2022/08/30 08:32:39;;;;;;;5.13;3.07;;;21.80;99.90;;;;;;472676;249;28903;-73
2022/08/30 08:34:40;;;;;;;4.93;3.17;;;21.80;99.90;;;;;;472700;249;28986;-69
2022/08/30 08:36:41;;;;;;;3.20;2.90;;;21.80;99.90;;;;;;472674;249;29292;-70
2022/08/30 08:38:42;;;;;;;3.70;3.03;;;21.70;99.90;;;;;;472722;250;28763;-69
2022/08/30 08:40:44;;;;;;;5.53;3.13;;;21.70;99.90;;;;;;472695;249;28877;-69
2022/08/30 08:42:45;;;;;;;4.23;3.50;;;21.70;99.90;;;;;;472687;250;29347;-74
2022/08/30 08:44:46;;;;;;;4.77;3.50;;;21.70;99.90;;;;;;472709;249;29406;-69
2022/08/30 08:46:47;;;;;;;3.80;3.30;;;21.70;99.90;;;;;;472642;249;29469;-69
2022/08/30 08:48:49;;;;;;;6.53;3.30;;;21.80;99.90;;;;;;472690;249;28887;-68
2022/08/30 08:55:29;;;;;;;4.13;3.60;;;22.10;99.90;;;;;;472709;251;28885;-68
2022/08/30 08:57:30;;;;;;;5.00;3.57;;;22.20;99.90;;;;;;472627;249;28985;-70
2022/08/30 08:59:31;;;;;;;3.27;2.97;;;22.30;99.90;;;;;;472664;249;28931;-72
2022/08/30 09:01:33;;;;;;;3.80;3.27;;;22.40;99.90;;;;;;472726;249;28894;-69
2022/08/30 09:03:34;;;;;;;3.70;3.40;;;22.60;99.90;;;;;;472705;249;28912;-69
2022/08/30 09:05:35;;;;;;;5.70;3.80;;;22.60;99.90;;;;;;472699;250;28871;-69
2022/08/30 09:07:36;;;;;;;4.53;3.50;;;22.70;99.90;;;;;;472608;249;29496;-69
2022/08/30 09:09:39;;;;;;;5.30;3.90;;;22.80;99.90;;;;;;472689;249;29456;-72
2022/08/30 09:11:39;;;;;;;3.93;3.53;;;22.90;99.90;;;;;;472635;250;29335;-69
2022/08/30 09:13:40;;;;;;;6.73;3.60;;;22.90;99.90;;;;;;472691;249;29370;-70
2022/08/30 09:15:42;;;;;;;5.60;4.10;;;22.80;99.90;;;;;;472683;249;28916;-69
2022/08/30 09:17:43;;;;;;;4.23;3.53;;;22.90;99.90;;;;;;472528;251;28993;-69
2022/08/30 09:19:44;;;;;;;5.73;3.80;;;23.00;99.90;;;;;;472702;249;28900;-73
2022/08/30 09:21:45;;;;;;;5.33;3.73;;;22.90;99.90;;;;;;472689;249;28899;-69
2022/08/30 09:23:46;;;;;;;6.67;4.00;;;23.00;99.90;;;;;;472677;249;28933;-69
2022/08/30 09:25:48;;;;;;;4.20;3.80;;;23.00;99.90;;;;;;472678;249;28887;-69
2022/08/30 09:27:49;;;;;;;4.65;3.65;;;23.10;99.90;;;;;;472463;249;25837;-69
2022/08/30 09:29:50;;;;;;;4.70;3.80;;;23.50;99.90;;;;;;472618;249;27553;-71
2022/08/30 09:31:52;;;;;;;5.90;3.97;;;23.60;99.90;;;;;;472576;249;29398;-68
2022/08/30 09:33:53;;;;;;;5.63;3.90;;;23.50;99.90;;;;;;472351;251;29488;-70
2022/08/30 09:35:54;;;;;;;4.83;4.33;;;23.60;99.90;;;;;;471815;249;29243;-69
2022/08/30 09:37:55;;;;;;;4.90;3.97;;;23.50;99.90;;;;;;472517;249;29454;-69
2022/08/30 09:39:56;;;;;;;5.17;4.10;;;23.50;99.90;;;;;;472531;250;28904;-73
2022/08/30 09:41:58;;;;;;;4.23;3.53;;;23.50;99.90;;;;;;472687;249;28955;-69
2022/08/30 09:43:59;;;;;;;4.50;4.10;;;23.50;99.90;;;;;;472686;249;28905;-69
2022/08/30 09:46:00;;;;;;;5.67;3.83;;;23.60;99.90;;;;;;472645;251;28863;-69
2022/08/30 09:48:01;;;;;;;4.80;3.40;;;23.60;99.90;;;;;;472636;249;28929;-69
2022/08/30 09:50:03;;;;;;;4.23;3.83;;;23.70;99.90;;;;;;472651;249;28999;-71
2022/08/30 09:52:04;;;;;;;4.30;3.90;;;23.90;99.90;;;;;;472632;250;28871;-69
2022/08/30 09:54:06;;;;;;;4.50;4.10;;;24.00;99.90;;;;;;472682;249;28905;-70
2022/08/30 09:56:06;;;;;;;4.13;3.73;;;23.90;99.90;;;;;;472584;249;28872;-69
2022/08/30 09:58:08;;;;;;;5.40;3.70;;;23.90;99.90;;;;;;472677;249;29328;-69
2022/08/30 10:00:09;;;;;;;5.63;4.17;;;24.10;99.90;;;;;;472690;249;29385;-72
2022/08/30 10:02:10;;;;;;;4.77;4.10;;;24.00;99.90;;;;;;472702;249;29351;-69
2022/08/30 10:04:12;;;;;;;4.80;4.00;;;24.00;99.90;;;;;;472674;249;29033;-70
2022/08/30 10:06:13;;;;;;;4.40;4.00;;;24.00;99.90;;;;;;472631;250;28955;-69
2022/08/30 10:08:14;;;;;;;4.67;4.20;;;24.00;99.90;;;;;;472628;250;28976;-69
2022/08/30 10:10:15;;;;;;;5.00;3.80;;;23.80;99.90;;;;;;472658;249;28930;-73
2022/08/30 10:12:16;;;;;;;4.90;4.50;;;24.20;99.90;;;;;;472694;249;28879;-71
2022/08/30 10:14:18;;;;;;;5.27;4.73;;;24.20;99.90;;;;;;472690;249;28947;-70
2022/08/30 10:16:19;;;;;;;5.70;4.43;;;24.00;99.90;;;;;;472624;249;28928;-69
2022/08/30 10:18:22;;;;;;;4.70;4.27;;;24.10;99.90;;;;;;472688;249;28866;-69
2022/08/30 10:20:21;;;;;;;4.60;4.20;;;24.40;99.90;;;;;;472644;251;28981;-72
2022/08/30 10:22:23;;;;;;;4.43;4.00;;;24.50;99.90;;;;;;472709;249;29328;-69
2022/08/30 10:24:24;;;;;;;5.20;4.60;;;24.40;99.90;;;;;;472437;249;29505;-69
2022/08/30 10:26:25;;;;;;;5.17;4.13;;;24.20;99.90;;;;;;472613;250;29335;-69
2022/08/30 10:28:27;;;;;;;4.50;4.10;;;24.30;99.90;;;;;;472702;249;28947;-69
2022/08/30 10:30:28;;;;;;;6.90;4.50;;;24.10;99.90;;;;;;472691;249;28912;-69
2022/08/30 10:32:29;;;;;;;4.30;4.00;;;24.10;99.90;;;;;;472682;249;28885;-70
2022/08/30 10:34:30;;;;;;;4.90;4.07;;;24.30;99.90;;;;;;472697;249;29035;-70
2022/08/30 10:36:32;;;;;;;8.60;4.40;;;24.40;99.90;;;;;;472606;250;29004;-69
2022/08/30 10:38:33;;;;;;;5.33;4.70;;;24.50;99.90;;;;;;472691;249;28877;-70